Terminal Aerodrome Forecast
Issued by NWS

Home | Current Version | Previous Version | Text Only | Print | Product List | Glossary Off
Versions: 1 2 3 4 5 6 7 8 9 10 11 12

000
FTUS43 KGRB 220500
TAFATW
TAF
KATW 220531Z 2206/2306 29012G18KT P6SM BKN035 BKN060
      TEMPO 2206/2209 5SM -SHSN BKN025
     FM221500 30016G25KT P6SM VCSH BKN035 BKN070
     FM230100 32007KT P6SM SCT035 BKN070=

USA.gov is the U.S. government's official web portal to all federal, state and local government web resources and services.